sensor_id;sensor_type;location;lat;lon;timestamp;pressure;altitude;pressure_sealevel;temperature;humidity
75699;BME280;64313;51.018;13.742;2023-04-25T00:00:56;98861.59;;;10.95;60.46
75699;BME280;64313;51.018;13.742;2023-04-25T00:03:22;98854.63;;;10.94;60.62
75699;BME280;64313;51.018;13.742;2023-04-25T00:05:50;98853.81;;;10.94;60.72
75699;BME280;64313;51.018;13.742;2023-04-25T00:08:16;98853.56;;;10.95;60.30
75699;BME280;64313;51.018;13.742;2023-04-25T00:10:42;98853.81;;;10.94;61.08
75699;BME280;64313;51.018;13.742;2023-04-25T00:13:07;98854.63;;;10.94;59.99
75699;BME280;64313;51.018;13.742;2023-04-25T00:15:33;98851.34;;;10.92;61.08
75699;BME280;64313;51.018;13.742;2023-04-25T00:17:58;98850.53;;;10.92;60.46
75699;BME280;64313;51.018;13.742;2023-04-25T00:20:23;98849.94;;;10.90;61.39
75699;BME280;64313;51.018;13.742;2023-04-25T00:22:50;98849.34;;;10.88;61.74
75699;BME280;64313;51.018;13.742;2023-04-25T00:25:16;98860.84;;;10.88;61.18
75699;BME280;64313;51.018;13.742;2023-04-25T00:27:41;98845.03;;;10.87;61.28
75699;BME280;64313;51.018;13.742;2023-04-25T00:30:07;98856.34;;;10.89;61.33
75699;BME280;64313;51.018;13.742;2023-04-25T00:32:32;98856.34;;;10.89;60.09
75699;BME280;64313;51.018;13.742;2023-04-25T00:34:58;98863.53;;;10.88;61.18
75699;BME280;64313;51.018;13.742;2023-04-25T00:37:23;98854.69;;;10.88;61.01
75699;BME280;64313;51.018;13.742;2023-04-25T00:39:48;98860.03;;;10.88;60.53
75699;BME280;64313;51.018;13.742;2023-04-25T00:42:15;98857.59;;;10.86;60.88
75699;BME280;64313;51.018;13.742;2023-04-25T00:44:40;98856.41;;;10.82;61.62
75699;BME280;64313;51.018;13.742;2023-04-25T00:47:06;98853.13;;;10.80;61.39
75699;BME280;64313;51.018;13.742;2023-04-25T00:49:32;98845.91;;;10.80;60.98
75699;BME280;64313;51.018;13.742;2023-04-25T00:51:57;98846.16;;;10.79;60.72
75699;BME280;64313;51.018;13.742;2023-04-25T00:54:23;98848.22;;;10.77;60.99
75699;BME280;64313;51.018;13.742;2023-04-25T00:56:48;98847.03;;;10.73;60.87
75699;BME280;64313;51.018;13.742;2023-04-25T00:59:14;98847.47;;;10.70;61.14
75699;BME280;64313;51.018;13.742;2023-04-25T01:01:40;98848.13;;;10.65;61.06
75699;BME280;64313;51.018;13.742;2023-04-25T01:04:06;98842.19;;;10.63;61.25
75699;BME280;64313;51.018;13.742;2023-04-25T01:06:32;98844.28;;;10.61;61.24
75699;BME280;64313;51.018;13.742;2023-04-25T01:08:58;98847.63;;;10.56;61.31
75699;BME280;64313;51.018;13.742;2023-04-25T01:11:24;98843.53;;;10.54;60.99
75699;BME280;64313;51.018;13.742;2023-04-25T01:13:50;98850.13;;;10.51;61.25
75699;BME280;64313;51.018;13.742;2023-04-25T01:16:15;98848.94;;;10.47;61.20
75699;BME280;64313;51.018;13.742;2023-04-25T01:18:41;98848.13;;;10.47;60.42
75699;BME280;64313;51.018;13.742;2023-04-25T01:21:09;98837.03;;;10.43;60.84
75699;BME280;64313;51.018;13.742;2023-04-25T01:23:36;98844.09;;;10.37;61.19
75699;BME280;64313;51.018;13.742;2023-04-25T01:26:01;98844.72;;;10.33;60.72
75699;BME280;64313;51.018;13.742;2023-04-25T01:28:28;98848.91;;;10.29;61.29
75699;BME280;64313;51.018;13.742;2023-04-25T01:30:54;98847.06;;;10.23;61.16
75699;BME280;64313;51.018;13.742;2023-04-25T01:33:21;98840.91;;;10.22;61.05
75699;BME280;64313;51.018;13.742;2023-04-25T01:35:46;98839.28;;;10.21;61.17
75699;BME280;64313;51.018;13.742;2023-04-25T01:38:13;98844.47;;;10.16;60.77
75699;BME280;64313;51.018;13.742;2023-04-25T01:40:40;98833.97;;;10.14;60.93
75699;BME280;64313;51.018;13.742;2023-04-25T01:43:06;98841.00;;;10.09;60.69
75699;BME280;64313;51.018;13.742;2023-04-25T01:45:33;98841.66;;;10.04;61.02
75699;BME280;64313;51.018;13.742;2023-04-25T01:47:58;98850.47;;;10.05;60.88
75699;BME280;64313;51.018;13.742;2023-04-25T01:50:25;98841.06;;;10.02;61.02
75699;BME280;64313;51.018;13.742;2023-04-25T01:52:50;98835.13;;;10.00;60.98
75699;BME280;64313;51.018;13.742;2023-04-25T01:55:16;98840.28;;;9.95;61.03
75699;BME280;64313;51.018;13.742;2023-04-25T01:57:52;98844.44;;;9.91;61.10
75699;BME280;64313;51.018;13.742;2023-04-25T02:00:22;98846.06;;;9.92;60.98
75699;BME280;64313;51.018;13.742;2023-04-25T02:02:48;98846.31;;;9.90;60.80
75699;BME280;64313;51.018;13.742;2023-04-25T02:05:22;98843.66;;;9.84;60.97
75699;BME280;64313;51.018;13.742;2023-04-25T02:07:47;98846.78;;;9.81;61.04
75699;BME280;64313;51.018;13.742;2023-04-25T02:10:13;98843.94;;;9.75;61.10
75699;BME280;64313;51.018;13.742;2023-04-25T02:12:50;98838.59;;;9.75;61.18
75699;BME280;64313;51.018;13.742;2023-04-25T02:15:21;98847.00;;;9.72;61.04
75699;BME280;64313;51.018;13.742;2023-04-25T02:17:50;98840.03;;;9.71;61.11
75699;BME280;64313;51.018;13.742;2023-04-25T02:20:18;98846.44;;;9.70;61.58
75699;BME280;64313;51.018;13.742;2023-04-25T02:22:45;98841.50;;;9.67;61.50
75699;BME280;64313;51.018;13.742;2023-04-25T02:25:11;98839.06;;;9.66;61.57
75699;BME280;64313;51.018;13.742;2023-04-25T02:27:37;98849.13;;;9.64;61.89
75699;BME280;64313;51.018;13.742;2023-04-25T02:30:03;98844.66;;;9.58;61.88
75699;BME280;64313;51.018;13.742;2023-04-25T02:32:32;98849.16;;;9.57;61.84
75699;BME280;64313;51.018;13.742;2023-04-25T02:34:59;98837.66;;;9.57;61.79
75699;BME280;64313;51.018;13.742;2023-04-25T02:37:32;98839.97;;;9.53;61.83
75699;BME280;64313;51.018;13.742;2023-04-25T02:39:58;98831.56;;;9.49;62.51
75699;BME280;64313;51.018;13.742;2023-04-25T02:42:23;98839.19;;;9.46;62.54
75699;BME280;64313;51.018;13.742;2023-04-25T02:44:49;98836.34;;;9.41;62.48
75699;BME280;64313;51.018;13.742;2023-04-25T02:47:14;98840.00;;;9.40;62.69
75699;BME280;64313;51.018;13.742;2023-04-25T02:49:39;98840.44;;;9.37;62.24
75699;BME280;64313;51.018;13.742;2023-04-25T02:52:05;98829.16;;;9.35;62.62
75699;BME280;64313;51.018;13.742;2023-04-25T02:54:30;98832.88;;;9.34;62.58
75699;BME280;64313;51.018;13.742;2023-04-25T02:56:57;98838.84;;;9.29;63.04
75699;BME280;64313;51.018;13.742;2023-04-25T02:59:28;98841.94;;;9.26;62.81
75699;BME280;64313;51.018;13.742;2023-04-25T03:01:54;98837.84;;;9.23;62.76
75699;BME280;64313;51.018;13.742;2023-04-25T03:04:20;98836.22;;;9.22;62.75
75699;BME280;64313;51.018;13.742;2023-04-25T03:06:46;98840.94;;;9.20;62.69
75699;BME280;64313;51.018;13.742;2023-04-25T03:09:12;98839.53;;;9.18;63.10
75699;BME280;64313;51.018;13.742;2023-04-25T03:11:38;98831.72;;;9.16;62.91
75699;BME280;64313;51.018;13.742;2023-04-25T03:14:04;98831.97;;;9.08;63.01
75699;BME280;64313;51.018;13.742;2023-04-25T03:16:29;98829.94;;;9.03;63.11
75699;BME280;64313;51.018;13.742;2023-04-25T03:18:56;98829.31;;;9.01;63.11
75699;BME280;64313;51.018;13.742;2023-04-25T03:21:21;98824.22;;;9.00;63.40
75699;BME280;64313;51.018;13.742;2023-04-25T03:23:46;98825.84;;;8.94;63.56
75699;BME280;64313;51.018;13.742;2023-04-25T03:26:12;98831.41;;;8.93;63.28
75699;BME280;64313;51.018;13.742;2023-04-25T03:28:37;98830.00;;;8.90;63.70
75699;BME280;64313;51.018;13.742;2023-04-25T03:31:03;98824.66;;;8.90;63.38
75699;BME280;64313;51.018;13.742;2023-04-25T03:33:29;98833.09;;;8.87;63.50
75699;BME280;64313;51.018;13.742;2023-04-25T03:35:54;98831.66;;;8.84;63.90
75699;BME280;64313;51.018;13.742;2023-04-25T03:38:20;98841.69;;;8.82;63.62
75699;BME280;64313;51.018;13.742;2023-04-25T03:40:45;98831.44;;;8.79;63.87
75699;BME280;64313;51.018;13.742;2023-04-25T03:43:18;98835.75;;;8.80;63.63
75699;BME280;64313;51.018;13.742;2023-04-25T03:45:50;98832.66;;;8.83;63.62
75699;BME280;64313;51.018;13.742;2023-04-25T03:48:19;98832.28;;;8.80;63.57
75699;BME280;64313;51.018;13.742;2023-04-25T03:50:47;98828.19;;;8.77;63.62
75699;BME280;64313;51.018;13.742;2023-04-25T03:53:12;98831.44;;;8.79;63.89
75699;BME280;64313;51.018;13.742;2023-04-25T03:55:57;98827.34;;;8.77;63.79
75699;BME280;64313;51.018;13.742;2023-04-25T03:58:23;98836.38;;;8.76;64.18
75699;BME280;64313;51.018;13.742;2023-04-25T04:00:49;98832.91;;;8.69;64.58
75699;BME280;64313;51.018;13.742;2023-04-25T04:03:18;98834.38;;;8.64;65.10
75699;BME280;64313;51.018;13.742;2023-04-25T04:05:44;98833.75;;;8.62;64.63
75699;BME280;64313;51.018;13.742;2023-04-25T04:08:10;98840.09;;;8.61;64.68
75699;BME280;64313;51.018;13.742;2023-04-25T04:10:37;98841.94;;;8.61;64.31
75699;BME280;64313;51.018;13.742;2023-04-25T04:13:03;98836.41;;;8.62;64.39
75699;BME280;64313;51.018;13.742;2023-04-25T04:15:28;98842.56;;;8.63;64.58
75699;BME280;64313;51.018;13.742;2023-04-25T04:17:54;98837.22;;;8.63;64.58
75699;BME280;64313;51.018;13.742;2023-04-25T04:20:20;98846.25;;;8.62;64.86
75699;BME280;64313;51.018;13.742;2023-04-25T04:22:46;98843.59;;;8.62;64.38
75699;BME280;64313;51.018;13.742;2023-04-25T04:25:13;98839.88;;;8.63;64.54
75699;BME280;64313;51.018;13.742;2023-04-25T04:27:57;98837.03;;;8.64;64.46
75699;BME280;64313;51.018;13.742;2023-04-25T04:30:42;98838.66;;;8.65;64.56
75699;BME280;64313;51.018;13.742;2023-04-25T04:33:11;98847.47;;;8.66;64.43
75699;BME280;64313;51.018;13.742;2023-04-25T04:35:37;98835.19;;;8.65;64.49
75699;BME280;64313;51.018;13.742;2023-04-25T04:38:03;98846.84;;;8.64;64.55
75699;BME280;64313;51.018;13.742;2023-04-25T04:40:32;98854.84;;;8.64;64.77
75699;BME280;64313;51.018;13.742;2023-04-25T04:43:06;98855.06;;;8.62;64.78
75699;BME280;64313;51.018;13.742;2023-04-25T04:45:42;98860.38;;;8.62;64.67
75699;BME280;64313;51.018;13.742;2023-04-25T04:48:32;98860.38;;;8.62;64.64
75699;BME280;64313;51.018;13.742;2023-04-25T04:51:19;98854.63;;;8.65;64.63
75699;BME280;64313;51.018;13.742;2023-04-25T04:53:58;98854.84;;;8.71;64.36
75699;BME280;64313;51.018;13.742;2023-04-25T04:56:45;98864.25;;;8.73;64.40
75699;BME280;64313;51.018;13.742;2023-04-25T04:59:27;98858.50;;;8.76;64.74
75699;BME280;64313;51.018;13.742;2023-04-25T05:02:07;98856.03;;;8.81;64.41
75699;BME280;64313;51.018;13.742;2023-04-25T05:04:49;98854.59;;;8.85;64.48
75699;BME280;64313;51.018;13.742;2023-04-25T05:07:28;98857.06;;;8.87;64.44
75699;BME280;64313;51.018;13.742;2023-04-25T05:10:05;98863.16;;;8.94;64.03
75699;BME280;64313;51.018;13.742;2023-04-25T05:12:49;98863.59;;;8.98;64.01
75699;BME280;64313;51.018;13.742;2023-04-25T05:15:31;98863.78;;;9.03;64.16
75699;BME280;64313;51.018;13.742;2023-04-25T05:18:12;98861.91;;;9.03;63.98
75699;BME280;64313;51.018;13.742;2023-04-25T05:20:45;98864.97;;;9.07;63.91
75699;BME280;64313;51.018;13.742;2023-04-25T05:23:19;98867.63;;;9.14;63.69
75699;BME280;64313;51.018;13.742;2023-04-25T05:26:03;98871.09;;;9.21;63.34
75699;BME280;64313;51.018;13.742;2023-04-25T05:28:34;98862.03;;;9.22;62.92
75699;BME280;64313;51.018;13.742;2023-04-25T05:31:20;98870.03;;;9.28;62.69
75699;BME280;64313;51.018;13.742;2023-04-25T05:34:02;98865.50;;;9.36;62.66
75699;BME280;64313;51.018;13.742;2023-04-25T05:36:39;98867.72;;;9.39;62.61
75699;BME280;64313;51.018;13.742;2023-04-25T05:39:04;98865.84;;;9.46;62.27
75699;BME280;64313;51.018;13.742;2023-04-25T05:42:03;98859.44;;;9.53;61.18
75699;BME280;64313;51.018;13.742;2023-04-25T05:44:47;98859.00;;;9.57;61.49
75699;BME280;64313;51.018;13.742;2023-04-25T05:47:25;98865.13;;;9.64;61.34
75699;BME280;64313;51.018;13.742;2023-04-25T05:50:08;98869.84;;;9.68;60.98
75699;BME280;64313;51.018;13.742;2023-04-25T05:52:43;98865.69;;;9.72;60.42
75699;BME280;64313;51.018;13.742;2023-04-25T05:55:28;98868.72;;;9.83;60.55
75699;BME280;64313;51.018;13.742;2023-04-25T05:57:54;98870.91;;;9.92;60.17
75699;BME280;64313;51.018;13.742;2023-04-25T06:00:21;98870.06;;;9.99;59.85
75699;BME280;64313;51.018;13.742;2023-04-25T06:02:48;98872.91;;;10.04;59.69
75699;BME280;64313;51.018;13.742;2023-04-25T06:05:14;98866.06;;;10.08;59.79
75699;BME280;64313;51.018;13.742;2023-04-25T06:07:39;98873.22;;;10.14;59.56
75699;BME280;64313;51.018;13.742;2023-04-25T06:10:05;98874.66;;;10.16;58.99
75699;BME280;64313;51.018;13.742;2023-04-25T06:12:32;98871.09;;;10.23;58.67
75699;BME280;64313;51.018;13.742;2023-04-25T06:14:58;98875.59;;;10.29;58.89
75699;BME280;64313;51.018;13.742;2023-04-25T06:17:24;98876.78;;;10.33;58.55
75699;BME280;64313;51.018;13.742;2023-04-25T06:19:50;98873.31;;;10.32;58.61
75699;BME280;64313;51.018;13.742;2023-04-25T06:22:15;98873.09;;;10.34;57.99
75699;BME280;64313;51.018;13.742;2023-04-25T06:24:40;98876.75;;;10.39;58.09
75699;BME280;64313;51.018;13.742;2023-04-25T06:27:06;98875.84;;;10.46;57.72
75699;BME280;64313;51.018;13.742;2023-04-25T06:29:32;98877.06;;;10.50;57.64
75699;BME280;64313;51.018;13.742;2023-04-25T06:31:57;98877.31;;;10.48;57.10
75699;BME280;64313;51.018;13.742;2023-04-25T06:34:23;98881.75;;;10.54;57.17
75699;BME280;64313;51.018;13.742;2023-04-25T06:36:48;98881.72;;;10.61;56.47
75699;BME280;64313;51.018;13.742;2023-04-25T06:39:15;98871.81;;;10.61;56.01
75699;BME280;64313;51.018;13.742;2023-04-25T06:41:40;98877.53;;;10.65;56.38
75699;BME280;64313;51.018;13.742;2023-04-25T06:44:13;98881.72;;;10.61;56.13
75699;BME280;64313;51.018;13.742;2023-04-25T06:46:47;98880.38;;;10.70;55.95
75699;BME280;64313;51.018;13.742;2023-04-25T06:49:13;98876.44;;;10.73;55.97
75699;BME280;64313;51.018;13.742;2023-04-25T06:51:38;98886.84;;;10.81;55.74
75699;BME280;64313;51.018;13.742;2023-04-25T06:54:04;98885.59;;;10.83;55.77
75699;BME280;64313;51.018;13.742;2023-04-25T06:56:38;98879.34;;;10.90;55.75
75699;BME280;64313;51.018;13.742;2023-04-25T06:59:09;98875.28;;;10.87;54.96
75699;BME280;64313;51.018;13.742;2023-04-25T07:01:37;98881.50;;;10.81;55.37
75699;BME280;64313;51.018;13.742;2023-04-25T07:04:06;98880.31;;;10.77;55.92
75699;BME280;64313;51.018;13.742;2023-04-25T07:06:33;98882.09;;;10.83;56.15
75699;BME280;64313;51.018;13.742;2023-04-25T07:09:00;98882.38;;;10.75;56.03
75699;BME280;64313;51.018;13.742;2023-04-25T07:11:25;98888.63;;;10.87;55.91
75699;BME280;64313;51.018;13.742;2023-04-25T07:13:51;98865.78;;;10.91;55.54
75699;BME280;64313;51.018;13.742;2023-04-25T07:16:16;98886.06;;;10.99;55.46
75699;BME280;64313;51.018;13.742;2023-04-25T07:18:42;98884.78;;;11.01;55.11
75699;BME280;64313;51.018;13.742;2023-04-25T07:21:08;98883.44;;;10.92;54.52
75699;BME280;64313;51.018;13.742;2023-04-25T07:23:35;98883.44;;;10.92;54.16
75699;BME280;64313;51.018;13.742;2023-04-25T07:26:07;98890.81;;;10.97;54.65
75699;BME280;64313;51.018;13.742;2023-04-25T07:28:33;98883.75;;;11.02;53.93
75699;BME280;64313;51.018;13.742;2023-04-25T07:30:58;98890.03;;;11.08;54.30
75699;BME280;64313;51.018;13.742;2023-04-25T07:33:23;98886.03;;;11.17;53.60
75699;BME280;64313;51.018;13.742;2023-04-25T07:35:49;98891.69;;;11.27;53.13
75699;BME280;64313;51.018;13.742;2023-04-25T07:38:16;98881.13;;;11.33;53.31
75699;BME280;64313;51.018;13.742;2023-04-25T07:40:42;98885.22;;;11.35;52.29
75699;BME280;64313;51.018;13.742;2023-04-25T07:43:09;98882.00;;;11.45;53.46
75699;BME280;64313;51.018;13.742;2023-04-25T07:45:46;98876.66;;;11.45;52.65
75699;BME280;64313;51.018;13.742;2023-04-25T07:48:17;98880.88;;;11.53;52.72
75699;BME280;64313;51.018;13.742;2023-04-25T07:50:44;98888.38;;;11.62;52.43
75699;BME280;64313;51.018;13.742;2023-04-25T07:53:09;98871.38;;;11.68;51.38
75699;BME280;64313;51.018;13.742;2023-04-25T07:55:42;98887.31;;;11.63;51.81
75699;BME280;64313;51.018;13.742;2023-04-25T07:58:13;98880.00;;;11.70;51.73
75699;BME280;64313;51.018;13.742;2023-04-25T08:00:42;98888.84;;;11.71;51.04
75699;BME280;64313;51.018;13.742;2023-04-25T08:03:26;98886.19;;;11.71;51.65
75699;BME280;64313;51.018;13.742;2023-04-25T08:05:53;98896.28;;;11.69;50.87
75699;BME280;64313;51.018;13.742;2023-04-25T08:08:18;98894.22;;;11.71;51.15
75699;BME280;64313;51.018;13.742;2023-04-25T08:10:44;98896.28;;;11.69;50.66
75699;BME280;64313;51.018;13.742;2023-04-25T08:13:11;98900.47;;;11.65;51.36
75699;BME280;64313;51.018;13.742;2023-04-25T08:15:39;98903.47;;;11.57;51.21
75699;BME280;64313;51.018;13.742;2023-04-25T08:18:04;98901.03;;;11.55;51.37
75699;BME280;64313;51.018;13.742;2023-04-25T08:20:31;98904.16;;;11.52;51.46
75699;BME280;64313;51.018;13.742;2023-04-25T08:22:58;98909.78;;;11.44;51.86
75699;BME280;64313;51.018;13.742;2023-04-25T08:25:38;98905.28;;;11.44;51.91
75699;BME280;64313;51.018;13.742;2023-04-25T08:28:03;98903.69;;;11.55;51.02
75699;BME280;64313;51.018;13.742;2023-04-25T08:30:29;98908.38;;;11.60;51.96
75699;BME280;64313;51.018;13.742;2023-04-25T08:32:55;98909.19;;;11.60;52.25
75699;BME280;64313;51.018;13.742;2023-04-25T08:35:37;98904.06;;;11.59;52.08
75699;BME280;64313;51.018;13.742;2023-04-25T08:38:02;98909.03;;;11.55;52.61
75699;BME280;64313;51.018;13.742;2023-04-25T08:40:28;98919.41;;;11.52;52.67
75699;BME280;64313;51.018;13.742;2023-04-25T08:43:01;98927.50;;;11.45;52.81
75699;BME280;64313;51.018;13.742;2023-04-25T08:45:31;98919.94;;;11.42;53.05
75699;BME280;64313;51.018;13.742;2023-04-25T08:47:57;98920.59;;;11.37;53.03
75699;BME280;64313;51.018;13.742;2023-04-25T08:50:23;98931.50;;;11.36;53.32
75699;BME280;64313;51.018;13.742;2023-04-25T08:52:51;98929.94;;;11.28;53.54
75699;BME280;64313;51.018;13.742;2023-04-25T08:55:18;98931.00;;;11.27;53.50
75699;BME280;64313;51.018;13.742;2023-04-25T08:57:44;98932.31;;;11.18;53.49
75699;BME280;64313;51.018;13.742;2023-04-25T09:00:11;98926.63;;;11.14;53.57
75699;BME280;64313;51.018;13.742;2023-04-25T09:02:39;98940.09;;;11.01;53.50
75699;BME280;64313;51.018;13.742;2023-04-25T09:05:07;98945.53;;;10.94;54.79
75699;BME280;64313;51.018;13.742;2023-04-25T09:07:35;98950.44;;;10.97;54.60
75699;BME280;64313;51.018;13.742;2023-04-25T09:10:01;98949.19;;;11.00;54.75
75699;BME280;64313;51.018;13.742;2023-04-25T09:12:29;98952.66;;;11.00;54.97
75699;BME280;64313;51.018;13.742;2023-04-25T09:15:12;98954.31;;;11.01;55.13
75699;BME280;64313;51.018;13.742;2023-04-25T09:17:59;98956.00;;;10.96;55.73
75699;BME280;64313;51.018;13.742;2023-04-25T09:20:41;98958.66;;;10.96;55.43
75699;BME280;64313;51.018;13.742;2023-04-25T09:23:08;98959.50;;;10.96;55.54
75699;BME280;64313;51.018;13.742;2023-04-25T09:25:37;98965.50;;;10.92;55.65
75699;BME280;64313;51.018;13.742;2023-04-25T09:28:07;98963.13;;;10.83;55.47
75699;BME280;64313;51.018;13.742;2023-04-25T09:30:34;98962.88;;;10.85;55.88
75699;BME280;64313;51.018;13.742;2023-04-25T09:33:17;98971.81;;;10.79;55.75
75699;BME280;64313;51.018;13.742;2023-04-25T09:35:47;98976.09;;;10.80;55.90
75699;BME280;64313;51.018;13.742;2023-04-25T09:38:25;98981.00;;;10.83;56.05
75699;BME280;64313;51.018;13.742;2023-04-25T09:40:56;98982.03;;;10.82;55.79
75699;BME280;64313;51.018;13.742;2023-04-25T09:43:35;98987.41;;;10.82;55.80
75699;BME280;64313;51.018;13.742;2023-04-25T09:46:02;98992.94;;;10.80;56.00
75699;BME280;64313;51.018;13.742;2023-04-25T09:48:29;98990.34;;;10.74;55.73
75699;BME280;64313;51.018;13.742;2023-04-25T09:51:13;98992.69;;;10.64;55.81
75699;BME280;64313;51.018;13.742;2023-04-25T09:53:45;98996.06;;;10.52;55.99
75699;BME280;64313;51.018;13.742;2023-04-25T09:56:23;98995.72;;;10.42;56.75
75699;BME280;64313;51.018;13.742;2023-04-25T09:58:50;98994.09;;;10.41;57.20
75699;BME280;64313;51.018;13.742;2023-04-25T10:01:19;98996.09;;;10.46;57.37
75699;BME280;64313;51.018;13.742;2023-04-25T10:04:00;98988.91;;;10.46;57.13
75699;BME280;64313;51.018;13.742;2023-04-25T10:06:41;98996.94;;;10.46;57.40
75699;BME280;64313;51.018;13.742;2023-04-25T10:09:08;98992.78;;;10.50;57.83
75699;BME280;64313;51.018;13.742;2023-04-25T10:11:34;99001.03;;;10.49;57.71
75699;BME280;64313;51.018;13.742;2023-04-25T10:14:00;98998.06;;;10.57;57.54
75699;BME280;64313;51.018;13.742;2023-04-25T10:16:26;98999.06;;;10.63;57.52
75699;BME280;64313;51.018;13.742;2023-04-25T10:18:53;99008.50;;;10.65;57.41
75699;BME280;64313;51.018;13.742;2023-04-25T10:21:20;99010.34;;;10.65;57.44
75699;BME280;64313;51.018;13.742;2023-04-25T10:23:46;99010.97;;;10.67;57.40
75699;BME280;64313;51.018;13.742;2023-04-25T10:26:13;99019.78;;;10.67;57.01
75699;BME280;64313;51.018;13.742;2023-04-25T10:28:56;99007.41;;;10.73;57.27
75699;BME280;64313;51.018;13.742;2023-04-25T10:31:25;99009.63;;;10.76;56.47
75699;BME280;64313;51.018;13.742;2023-04-25T10:33:50;99011.91;;;10.79;56.33
75699;BME280;64313;51.018;13.742;2023-04-25T10:36:20;99011.91;;;10.79;56.68
75699;BME280;64313;51.018;13.742;2023-04-25T10:38:47;99020.09;;;10.84;56.80
75699;BME280;64313;51.018;13.742;2023-04-25T10:41:17;99014.94;;;10.82;56.84
75699;BME280;64313;51.018;13.742;2023-04-25T10:43:44;99016.91;;;10.94;56.36
75699;BME280;64313;51.018;13.742;2023-04-25T10:46:22;99012.75;;;10.98;56.39
75699;BME280;64313;51.018;13.742;2023-04-25T10:48:50;99018.34;;;10.96;56.28
75699;BME280;64313;51.018;13.742;2023-04-25T10:51:17;99024.72;;;10.95;57.08
75699;BME280;64313;51.018;13.742;2023-04-25T10:53:44;99019.59;;;10.94;56.74
75699;BME280;64313;51.018;13.742;2023-04-25T10:56:20;99020.25;;;10.89;56.94
75699;BME280;64313;51.018;13.742;2023-04-25T10:58:49;99017.56;;;10.89;57.17
75699;BME280;64313;51.018;13.742;2023-04-25T11:01:19;99025.00;;;10.87;57.37
75699;BME280;64313;51.018;13.742;2023-04-25T11:03:45;99031.78;;;10.83;57.37
75699;BME280;64313;51.018;13.742;2023-04-25T11:06:20;99030.44;;;10.74;58.04
75699;BME280;64313;51.018;13.742;2023-04-25T11:08:51;99030.03;;;10.70;58.18
75699;BME280;64313;51.018;13.742;2023-04-25T11:11:18;99030.84;;;10.71;58.15
75699;BME280;64313;51.018;13.742;2023-04-25T11:13:44;99037.28;;;10.63;58.78
75699;BME280;64313;51.018;13.742;2023-04-25T11:16:10;99036.78;;;10.48;59.32
75699;BME280;64313;51.018;13.742;2023-04-25T11:18:35;99047.72;;;10.39;59.67
75699;BME280;64313;51.018;13.742;2023-04-25T11:21:02;99050.78;;;10.43;59.43
75699;BME280;64313;51.018;13.742;2023-04-25T11:23:32;99047.94;;;10.38;59.24
75699;BME280;64313;51.018;13.742;2023-04-25T11:25:57;99058.66;;;10.31;59.79
75699;BME280;64313;51.018;13.742;2023-04-25T11:28:25;99058.22;;;10.41;60.03
75699;BME280;64313;51.018;13.742;2023-04-25T11:30:51;99068.28;;;10.39;59.63
75699;BME280;64313;51.018;13.742;2023-04-25T11:33:17;99071.00;;;10.26;58.64
75699;BME280;64313;51.018;13.742;2023-04-25T11:35:43;99059.91;;;10.22;59.12
75699;BME280;64313;51.018;13.742;2023-04-25T11:38:08;99067.28;;;10.27;59.22
75699;BME280;64313;51.018;13.742;2023-04-25T11:40:35;99076.34;;;10.26;58.59
75699;BME280;64313;51.018;13.742;2023-04-25T11:43:01;99077.16;;;10.26;58.82
75699;BME280;64313;51.018;13.742;2023-04-25T11:45:26;99079.63;;;10.28;58.53
75699;BME280;64313;51.018;13.742;2023-04-25T11:47:51;99075.50;;;10.25;58.85
75699;BME280;64313;51.018;13.742;2023-04-25T11:50:17;99075.72;;;10.24;58.82
75699;BME280;64313;51.018;13.742;2023-04-25T11:52:45;99084.13;;;10.27;58.48
75699;BME280;64313;51.018;13.742;2023-04-25T11:55:15;99079.81;;;10.26;58.90
75699;BME280;64313;51.018;13.742;2023-04-25T11:57:41;99089.91;;;10.24;58.91
75699;BME280;64313;51.018;13.742;2023-04-25T12:00:11;99091.97;;;10.29;59.06
75699;BME280;64313;51.018;13.742;2023-04-25T12:02:47;99089.91;;;10.31;58.98
75699;BME280;64313;51.018;13.742;2023-04-25T12:05:14;99088.88;;;10.32;59.05
75699;BME280;64313;51.018;13.742;2023-04-25T12:07:43;99086.19;;;10.32;58.76
75699;BME280;64313;51.018;13.742;2023-04-25T12:10:10;99089.47;;;10.27;58.21
75699;BME280;64313;51.018;13.742;2023-04-25T12:12:37;99084.75;;;10.36;58.52
75699;BME280;64313;51.018;13.742;2023-04-25T12:17:41;99091.50;;;10.38;57.77
75699;BME280;64313;51.018;13.742;2023-04-25T12:20:14;99091.72;;;10.37;57.60
75699;BME280;64313;51.018;13.742;2023-04-25T12:22:41;99095.59;;;10.41;57.69
75699;BME280;64313;51.018;13.742;2023-04-25T12:25:12;99099.28;;;10.40;57.68
75699;BME280;64313;51.018;13.742;2023-04-25T12:27:38;99112.47;;;10.35;57.45
75699;BME280;64313;51.018;13.742;2023-04-25T12:30:07;99094.19;;;10.38;56.81
75699;BME280;64313;51.018;13.742;2023-04-25T12:32:33;99095.59;;;10.41;56.98
75699;BME280;64313;51.018;13.742;2023-04-25T12:34:58;99089.41;;;10.47;56.85
75699;BME280;64313;51.018;13.742;2023-04-25T12:37:24;99100.06;;;10.54;56.40
75699;BME280;64313;51.018;13.742;2023-04-25T12:39:49;99095.09;;;10.57;56.25
75699;BME280;64313;51.018;13.742;2023-04-25T12:42:15;99094.47;;;10.62;56.00
75699;BME280;64313;51.018;13.742;2023-04-25T12:44:40;99097.50;;;10.66;56.21
75699;BME280;64313;51.018;13.742;2023-04-25T12:47:06;99094.59;;;10.74;55.64
75699;BME280;64313;51.018;13.742;2023-04-25T12:49:31;99092.50;;;10.76;54.49
75699;BME280;64313;51.018;13.742;2023-04-25T12:51:57;99098.69;;;10.76;55.01
75699;BME280;64313;51.018;13.742;2023-04-25T12:54:24;99103.03;;;10.71;54.19
75699;BME280;64313;51.018;13.742;2023-04-25T12:56:50;99093.81;;;10.67;54.55
75699;BME280;64313;51.018;13.742;2023-04-25T12:59:16;99092.41;;;10.64;54.30
75699;BME280;64313;51.018;13.742;2023-04-25T13:01:41;99104.69;;;10.72;54.98
75699;BME280;64313;51.018;13.742;2023-04-25T13:04:06;99099.34;;;10.72;54.00